sensor_id;sensor_type;location;lat;lon;timestamp;pressure;altitude;pressure_sealevel;temperature;humidity
5138;BME280;53959;53.626;11.410;2023-04-19T00:02:10;102573.19;;;5.58;56.96
5138;BME280;53959;53.626;11.410;2023-04-19T00:04:35;102577.69;;;5.64;57.51
5138;BME280;53959;53.626;11.410;2023-04-19T00:07:02;102574.94;;;5.57;57.24
5138;BME280;53959;53.626;11.410;2023-04-19T00:09:28;102575.66;;;5.52;56.92
5138;BME280;53959;53.626;11.410;2023-04-19T00:11:53;102564.41;;;5.59;56.77
5138;BME280;53959;53.626;11.410;2023-04-19T00:14:18;102568.88;;;5.62;57.03
5138;BME280;53959;53.626;11.410;2023-04-19T00:16:44;102563.53;;;5.58;57.61
5138;BME280;53959;53.626;11.410;2023-04-19T00:19:09;102561.59;;;5.51;57.50
5138;BME280;53959;53.626;11.410;2023-04-19T00:21:35;102556.31;;;5.51;57.37
5138;BME280;53959;53.626;11.410;2023-04-19T00:24:01;102552.59;;;5.43;57.72
5138;BME280;53959;53.626;11.410;2023-04-19T00:26:27;102554.63;;;5.53;57.44
5138;BME280;53959;53.626;11.410;2023-04-19T00:28:52;102549.09;;;5.44;57.46
5138;BME280;53959;53.626;11.410;2023-04-19T00:31:18;102552.69;;;5.46;57.20
5138;BME280;53959;53.626;11.410;2023-04-19T00:33:43;102551.09;;;5.53;56.87
5138;BME280;53959;53.626;11.410;2023-04-19T00:36:08;102542.34;;;5.55;57.08
5138;BME280;53959;53.626;11.410;2023-04-19T00:38:34;102542.44;;;5.58;57.29
5138;BME280;53959;53.626;11.410;2023-04-19T00:41:01;102540.50;;;5.51;56.54
5138;BME280;53959;53.626;11.410;2023-04-19T00:43:26;102537.16;;;5.58;56.90
5138;BME280;53959;53.626;11.410;2023-04-19T00:45:52;102529.94;;;5.51;57.08
5138;BME280;53959;53.626;11.410;2023-04-19T00:48:17;102533.53;;;5.53;57.30
5138;BME280;53959;53.626;11.410;2023-04-19T00:50:44;102526.41;;;5.49;57.44
5138;BME280;53959;53.626;11.410;2023-04-19T00:53:09;102526.47;;;5.52;57.06
5138;BME280;53959;53.626;11.410;2023-04-19T00:55:37;102528.28;;;5.55;57.03
5138;BME280;53959;53.626;11.410;2023-04-19T00:58:04;102532.59;;;5.51;57.49
5138;BME280;53959;53.626;11.410;2023-04-19T01:00:30;102536.09;;;5.52;57.21
5138;BME280;53959;53.626;11.410;2023-04-19T01:02:55;102536.78;;;5.43;57.82
5138;BME280;53959;53.626;11.410;2023-04-19T01:05:21;102531.69;;;5.49;57.56
5138;BME280;53959;53.626;11.410;2023-04-19T01:07:46;102528.00;;;5.44;57.66
5138;BME280;53959;53.626;11.410;2023-04-19T01:10:13;102535.69;;;5.35;57.82
5138;BME280;53959;53.626;11.410;2023-04-19T01:12:39;102538.47;;;5.41;57.92
5138;BME280;53959;53.626;11.410;2023-04-19T01:15:05;102536.59;;;5.35;57.86
5138;BME280;53959;53.626;11.410;2023-04-19T01:17:31;102533.00;;;5.33;58.00
5138;BME280;53959;53.626;11.410;2023-04-19T01:20:04;102538.44;;;5.40;57.81
5138;BME280;53959;53.626;11.410;2023-04-19T01:22:33;102534.31;;;5.49;57.72
5138;BME280;53959;53.626;11.410;2023-04-19T01:24:59;102532.38;;;5.42;57.31
5138;BME280;53959;53.626;11.410;2023-04-19T01:27:24;102541.09;;;5.41;57.97
5138;BME280;53959;53.626;11.410;2023-04-19T01:29:50;102537.38;;;5.31;57.77
5138;BME280;53959;53.626;11.410;2023-04-19T01:32:16;102536.47;;;5.31;57.85
5138;BME280;53959;53.626;11.410;2023-04-19T01:34:41;102536.47;;;5.31;58.69
5138;BME280;53959;53.626;11.410;2023-04-19T01:37:07;102534.84;;;5.36;58.49
5138;BME280;53959;53.626;11.410;2023-04-19T01:39:32;102532.13;;;5.33;58.02
5138;BME280;53959;53.626;11.410;2023-04-19T01:41:59;102532.69;;;5.21;58.51
5138;BME280;53959;53.626;11.410;2023-04-19T01:44:25;102525.84;;;5.28;58.88
5138;BME280;53959;53.626;11.410;2023-04-19T01:46:51;102527.50;;;5.23;59.02
5138;BME280;53959;53.626;11.410;2023-04-19T01:49:17;102525.88;;;5.29;59.12
5138;BME280;53959;53.626;11.410;2023-04-19T01:51:42;102520.66;;;5.31;59.18
5138;BME280;53959;53.626;11.410;2023-04-19T01:54:08;102518.63;;;5.21;59.55
5138;BME280;53959;53.626;11.410;2023-04-19T01:56:33;102515.41;;;5.31;59.42
5138;BME280;53959;53.626;11.410;2023-04-19T01:59:00;102515.03;;;5.17;60.23
5138;BME280;53959;53.626;11.410;2023-04-19T02:01:25;102510.84;;;5.25;60.22
5138;BME280;53959;53.626;11.410;2023-04-19T02:03:51;102515.41;;;5.31;60.34
5138;BME280;53959;53.626;11.410;2023-04-19T02:06:16;102517.34;;;5.38;59.84
5138;BME280;53959;53.626;11.410;2023-04-19T02:08:42;102515.63;;;5.40;59.95
5138;BME280;53959;53.626;11.410;2023-04-19T02:11:08;102501.53;;;5.38;60.43
5138;BME280;53959;53.626;11.410;2023-04-19T02:13:34;102499.91;;;5.45;59.98
5138;BME280;53959;53.626;11.410;2023-04-19T02:15:59;102498.03;;;5.39;60.11
5138;BME280;53959;53.626;11.410;2023-04-19T02:18:28;102499.91;;;5.45;59.83
5138;BME280;53959;53.626;11.410;2023-04-19T02:20:55;102490.16;;;5.41;60.01
5138;BME280;53959;53.626;11.410;2023-04-19T02:23:20;102490.22;;;5.42;60.48
5138;BME280;53959;53.626;11.410;2023-04-19T02:25:46;102488.66;;;5.50;60.78
5138;BME280;53959;53.626;11.410;2023-04-19T02:28:13;102490.22;;;5.44;61.11
5138;BME280;53959;53.626;11.410;2023-04-19T02:30:38;102492.06;;;5.46;61.23
5138;BME280;53959;53.626;11.410;2023-04-19T02:33:03;102484.00;;;5.40;61.59
5138;BME280;53959;53.626;11.410;2023-04-19T02:35:29;102482.25;;;5.41;61.77
5138;BME280;53959;53.626;11.410;2023-04-19T02:37:56;102478.63;;;5.37;61.72
5138;BME280;53959;53.626;11.410;2023-04-19T02:40:24;102477.63;;;5.30;61.42
5138;BME280;53959;53.626;11.410;2023-04-19T02:42:51;102467.81;;;5.25;61.61
5138;BME280;53959;53.626;11.410;2023-04-19T02:45:16;102475.00;;;5.32;62.05
5138;BME280;53959;53.626;11.410;2023-04-19T02:47:42;102469.00;;;5.38;61.58
5138;BME280;53959;53.626;11.410;2023-04-19T02:50:07;102459.88;;;5.23;62.16
5138;BME280;53959;53.626;11.410;2023-04-19T02:52:38;102464.25;;;5.23;62.16
5138;BME280;53959;53.626;11.410;2023-04-19T02:55:05;102462.69;;;5.31;62.11
5138;BME280;53959;53.626;11.410;2023-04-19T02:57:31;102466.03;;;5.24;62.41
5138;BME280;53959;53.626;11.410;2023-04-19T02:59:57;102463.44;;;5.25;62.93
5138;BME280;53959;53.626;11.410;2023-04-19T03:02:23;102459.00;;;5.23;63.07
5138;BME280;53959;53.626;11.410;2023-04-19T03:04:49;102459.09;;;5.27;62.92
5138;BME280;53959;53.626;11.410;2023-04-19T03:07:15;102452.94;;;5.27;63.54
5138;BME280;53959;53.626;11.410;2023-04-19T03:09:41;102456.31;;;5.21;64.01
5138;BME280;53959;53.626;11.410;2023-04-19T03:12:07;102452.16;;;5.31;64.38
5138;BME280;53959;53.626;11.410;2023-04-19T03:14:32;102444.13;;;5.26;64.48
5138;BME280;53959;53.626;11.410;2023-04-19T03:16:58;102446.72;;;5.25;64.18
5138;BME280;53959;53.626;11.410;2023-04-19T03:19:24;102436.97;;;5.21;64.35
5138;BME280;53959;53.626;11.410;2023-04-19T03:21:50;102440.47;;;5.20;64.60
5138;BME280;53959;53.626;11.410;2023-04-19T03:24:18;102431.81;;;5.25;64.89
5138;BME280;53959;53.626;11.410;2023-04-19T03:26:48;102424.78;;;5.24;64.93
5138;BME280;53959;53.626;11.410;2023-04-19T03:29:15;102420.22;;;5.19;64.99
5138;BME280;53959;53.626;11.410;2023-04-19T03:31:48;102425.66;;;5.25;65.53
5138;BME280;53959;53.626;11.410;2023-04-19T03:34:14;102421.31;;;5.27;65.87
5138;BME280;53959;53.626;11.410;2023-04-19T03:36:43;102417.78;;;5.26;65.92
5138;BME280;53959;53.626;11.410;2023-04-19T03:39:08;102424.88;;;5.29;66.33
5138;BME280;53959;53.626;11.410;2023-04-19T03:41:35;102418.63;;;5.24;66.71
5138;BME280;53959;53.626;11.410;2023-04-19T03:44:36;102429.00;;;5.18;66.49
5138;BME280;53959;53.626;11.410;2023-04-19T03:47:04;102416.59;;;5.14;67.41
5138;BME280;53959;53.626;11.410;2023-04-19T03:49:34;102420.22;;;5.19;66.83
5138;BME280;53959;53.626;11.410;2023-04-19T03:52:03;102423.63;;;5.15;66.69
5138;BME280;53959;53.626;11.410;2023-04-19T03:54:28;102420.13;;;5.14;66.99
5138;BME280;53959;53.626;11.410;2023-04-19T03:56:53;102415.69;;;5.11;67.21
5138;BME280;53959;53.626;11.410;2023-04-19T03:59:19;102414.13;;;5.20;67.33
5138;BME280;53959;53.626;11.410;2023-04-19T04:01:45;102419.31;;;5.17;67.32
5138;BME280;53959;53.626;11.410;2023-04-19T04:04:11;102415.78;;;5.16;67.63
5138;BME280;53959;53.626;11.410;2023-04-19T04:06:37;102412.41;;;5.22;67.70
5138;BME280;53959;53.626;11.410;2023-04-19T04:09:03;102410.00;;;5.31;67.22
5138;BME280;53959;53.626;11.410;2023-04-19T04:11:29;102415.28;;;5.31;67.35
5138;BME280;53959;53.626;11.410;2023-04-19T04:13:55;102416.75;;;5.20;68.07
5138;BME280;53959;53.626;11.410;2023-04-19T04:16:25;102412.56;;;5.28;67.58
5138;BME280;53959;53.626;11.410;2023-04-19T04:18:52;102412.47;;;5.23;67.84
5138;BME280;53959;53.626;11.410;2023-04-19T04:21:17;102413.66;;;5.38;67.68
5138;BME280;53959;53.626;11.410;2023-04-19T04:23:45;102408.16;;;5.27;67.28
5138;BME280;53959;53.626;11.410;2023-04-19T04:26:17;102410.88;;;5.31;67.19
5138;BME280;53959;53.626;11.410;2023-04-19T04:29:08;102402.81;;;5.24;66.73
5138;BME280;53959;53.626;11.410;2023-04-19T04:31:35;102401.88;;;5.22;66.72
5138;BME280;53959;53.626;11.410;2023-04-19T04:34:01;102406.50;;;5.32;66.61
5138;BME280;53959;53.626;11.410;2023-04-19T04:36:28;102400.25;;;5.27;65.89
5138;BME280;53959;53.626;11.410;2023-04-19T04:38:54;102406.66;;;5.38;65.60
5138;BME280;53959;53.626;11.410;2023-04-19T04:41:21;102407.41;;;5.34;65.75
5138;BME280;53959;53.626;11.410;2023-04-19T04:43:46;102406.69;;;5.40;66.39
5138;BME280;53959;53.626;11.410;2023-04-19T04:46:16;102404.19;;;5.46;66.40
5138;BME280;53959;53.626;11.410;2023-04-19T04:48:42;102397.09;;;5.42;66.05
5138;BME280;53959;53.626;11.410;2023-04-19T04:51:07;102402.28;;;5.40;66.20
5138;BME280;53959;53.626;11.410;2023-04-19T04:53:34;102407.66;;;5.43;65.88
5138;BME280;53959;53.626;11.410;2023-04-19T04:56:02;102411.97;;;5.41;66.28
5138;BME280;53959;53.626;11.410;2023-04-19T04:58:28;102410.25;;;5.42;65.97
5138;BME280;53959;53.626;11.410;2023-04-19T05:01:01;102422.75;;;5.50;66.01
5138;BME280;53959;53.626;11.410;2023-04-19T05:03:27;102407.81;;;5.51;65.65
5138;BME280;53959;53.626;11.410;2023-04-19T05:05:57;102407.81;;;5.51;65.91
5138;BME280;53959;53.626;11.410;2023-04-19T05:08:25;102408.84;;;5.57;65.77
5138;BME280;53959;53.626;11.410;2023-04-19T05:10:52;102404.81;;;5.73;65.09
5138;BME280;53959;53.626;11.410;2023-04-19T05:13:20;102407.44;;;5.72;64.94
5138;BME280;53959;53.626;11.410;2023-04-19T05:15:46;102407.38;;;5.70;65.22
5138;BME280;53959;53.626;11.410;2023-04-19T05:18:12;102398.56;;;5.70;65.10
5138;BME280;53959;53.626;11.410;2023-04-19T05:20:38;102406.63;;;5.76;65.13
5138;BME280;53959;53.626;11.410;2023-04-19T05:23:10;102410.25;;;5.81;64.65
5138;BME280;53959;53.626;11.410;2023-04-19T05:25:36;102409.38;;;5.80;64.05
5138;BME280;53959;53.626;11.410;2023-04-19T05:28:01;102407.59;;;5.79;64.09
5138;BME280;53959;53.626;11.410;2023-04-19T05:30:32;102405.91;;;5.83;64.18
5138;BME280;53959;53.626;11.410;2023-04-19T05:32:59;102402.50;;;5.89;63.36
5138;BME280;53959;53.626;11.410;2023-04-19T05:35:24;102410.47;;;5.92;63.37
5138;BME280;53959;53.626;11.410;2023-04-19T05:37:50;102407.06;;;5.94;63.25
5138;BME280;53959;53.626;11.410;2023-04-19T05:40:15;102402.75;;;5.99;62.88
5138;BME280;53959;53.626;11.410;2023-04-19T05:42:40;102411.72;;;6.07;61.82
5138;BME280;53959;53.626;11.410;2023-04-19T05:45:06;102400.47;;;6.16;61.54
5138;BME280;53959;53.626;11.410;2023-04-19T05:47:32;102396.19;;;6.21;61.22
5138;BME280;53959;53.626;11.410;2023-04-19T05:50:27;102405.09;;;6.28;60.83
5138;BME280;53959;53.626;11.410;2023-04-19T05:53:12;102407.84;;;6.34;60.40
5138;BME280;53959;53.626;11.410;2023-04-19T05:55:37;102396.50;;;6.38;60.35
5138;BME280;53959;53.626;11.410;2023-04-19T05:58:03;102404.59;;;6.47;59.96
5138;BME280;53959;53.626;11.410;2023-04-19T06:00:28;102404.69;;;6.53;59.13
5138;BME280;53959;53.626;11.410;2023-04-19T06:03:01;102403.88;;;6.54;58.80
5138;BME280;53959;53.626;11.410;2023-04-19T06:05:27;102400.28;;;6.52;58.71
5138;BME280;53959;53.626;11.410;2023-04-19T06:07:54;102404.88;;;6.63;58.68
5138;BME280;53959;53.626;11.410;2023-04-19T06:10:21;102396.06;;;6.62;58.31
5138;BME280;53959;53.626;11.410;2023-04-19T06:12:47;102408.47;;;6.68;57.94
5138;BME280;53959;53.626;11.410;2023-04-19T06:15:13;102406.72;;;6.68;58.11
5138;BME280;53959;53.626;11.410;2023-04-19T06:17:38;102402.47;;;6.76;57.97
5138;BME280;53959;53.626;11.410;2023-04-19T06:20:04;102403.53;;;6.85;58.12
5138;BME280;53959;53.626;11.410;2023-04-19T06:22:31;102394.78;;;6.89;57.77
5138;BME280;53959;53.626;11.410;2023-04-19T06:24:57;102399.25;;;6.94;58.09
5138;BME280;53959;53.626;11.410;2023-04-19T06:27:22;102395.91;;;7.04;57.87
5138;BME280;53959;53.626;11.410;2023-04-19T06:29:47;102400.44;;;7.12;57.19
5138;BME280;53959;53.626;11.410;2023-04-19T06:32:13;102403.97;;;7.14;57.43
5138;BME280;53959;53.626;11.410;2023-04-19T06:34:38;102406.63;;;7.14;57.05
5138;BME280;53959;53.626;11.410;2023-04-19T06:37:04;102405.84;;;7.19;57.14
5138;BME280;53959;53.626;11.410;2023-04-19T06:39:29;102408.56;;;7.24;56.55
5138;BME280;53959;53.626;11.410;2023-04-19T06:41:54;102403.41;;;7.33;56.95
5138;BME280;53959;53.626;11.410;2023-04-19T06:44:21;102403.69;;;7.51;56.99
5138;BME280;53959;53.626;11.410;2023-04-19T06:46:46;102402.78;;;7.49;56.40
5138;BME280;53959;53.626;11.410;2023-04-19T06:49:11;102398.53;;;7.61;56.79
5138;BME280;53959;53.626;11.410;2023-04-19T06:51:38;102405.50;;;7.55;57.19
5138;BME280;53959;53.626;11.410;2023-04-19T06:54:03;102400.41;;;7.71;56.26
5138;BME280;53959;53.626;11.410;2023-04-19T06:59:05;102388.31;;;7.88;56.67
5138;BME280;53959;53.626;11.410;2023-04-19T07:01:30;102401.59;;;7.93;57.09
5138;BME280;53959;53.626;11.410;2023-04-19T07:03:55;102393.63;;;7.90;56.43
5138;BME280;53959;53.626;11.410;2023-04-19T07:06:21;102385.81;;;8.00;56.28
5138;BME280;53959;53.626;11.410;2023-04-19T07:08:46;102393.88;;;8.10;56.89
5138;BME280;53959;53.626;11.410;2023-04-19T07:11:11;102388.69;;;8.17;56.64
5138;BME280;53959;53.626;11.410;2023-04-19T07:13:37;102384.22;;;8.13;56.30
5138;BME280;53959;53.626;11.410;2023-04-19T07:16:03;102378.94;;;8.13;56.07
5138;BME280;53959;53.626;11.410;2023-04-19T07:18:29;102377.34;;;8.31;56.21
5138;BME280;53959;53.626;11.410;2023-04-19T07:20:54;102368.66;;;8.41;55.52
5138;BME280;53959;53.626;11.410;2023-04-19T07:23:20;102370.50;;;8.49;54.94
5138;BME280;53959;53.626;11.410;2023-04-19T07:25:45;102366.09;;;8.47;54.75
5138;BME280;53959;53.626;11.410;2023-04-19T07:28:10;102365.28;;;8.56;54.74
5138;BME280;53959;53.626;11.410;2023-04-19T07:30:36;102368.94;;;8.68;54.21
5138;BME280;53959;53.626;11.410;2023-04-19T07:33:02;102363.81;;;8.90;53.92
5138;BME280;53959;53.626;11.410;2023-04-19T07:35:29;102366.69;;;9.19;53.25
5138;BME280;53959;53.626;11.410;2023-04-19T07:37:54;102359.72;;;9.30;51.83
5138;BME280;53959;53.626;11.410;2023-04-19T07:40:20;102367.81;;;9.52;51.21
5138;BME280;53959;53.626;11.410;2023-04-19T07:42:45;102351.28;;;11.56;46.81
5138;BME280;53959;53.626;11.410;2023-04-19T07:45:11;102357.22;;;13.40;43.07
5138;BME280;53959;53.626;11.410;2023-04-19T07:47:36;102348.34;;;13.34;42.30
5138;BME280;53959;53.626;11.410;2023-04-19T07:50:02;102353.91;;;14.58;40.09
5138;BME280;53959;53.626;11.410;2023-04-19T07:52:28;102358.13;;;14.73;39.31
5138;BME280;53959;53.626;11.410;2023-04-19T07:54:53;102355.88;;;14.44;39.72
5138;BME280;53959;53.626;11.410;2023-04-19T07:57:19;102351.66;;;14.88;38.74
5138;BME280;53959;53.626;11.410;2023-04-19T07:59:45;102349.13;;;15.29;38.22
5138;BME280;53959;53.626;11.410;2023-04-19T08:02:10;102349.38;;;15.62;37.55
5138;BME280;53959;53.626;11.410;2023-04-19T08:04:36;102364.03;;;16.68;35.86
5138;BME280;53959;53.626;11.410;2023-04-19T08:07:01;102344.56;;;15.35;37.51
5138;BME280;53959;53.626;11.410;2023-04-19T08:09:28;102348.06;;;16.62;36.15
5138;BME280;53959;53.626;11.410;2023-04-19T08:11:53;102356.19;;;15.80;36.45
5138;BME280;53959;53.626;11.410;2023-04-19T08:14:19;102352.78;;;15.72;36.63
5138;BME280;53959;53.626;11.410;2023-04-19T08:16:44;102350.72;;;17.34;34.48
5138;BME280;53959;53.626;11.410;2023-04-19T08:19:09;102335.91;;;16.86;34.89
5138;BME280;53959;53.626;11.410;2023-04-19T08:21:35;102345.94;;;17.45;33.43
5138;BME280;53959;53.626;11.410;2023-04-19T08:24:00;102339.69;;;16.39;34.25
5138;BME280;53959;53.626;11.410;2023-04-19T08:26:26;102331.28;;;16.91;34.01
5138;BME280;53959;53.626;11.410;2023-04-19T08:28:51;102323.47;;;16.45;34.99
5138;BME280;53959;53.626;11.410;2023-04-19T08:31:17;102322.75;;;17.10;33.77
5138;BME280;53959;53.626;11.410;2023-04-19T08:33:45;102318.78;;;17.24;32.96
5138;BME280;53959;53.626;11.410;2023-04-19T08:36:10;102321.94;;;17.06;33.05
5138;BME280;53959;53.626;11.410;2023-04-19T08:38:36;102318.94;;;17.82;32.00
5138;BME280;53959;53.626;11.410;2023-04-19T08:41:03;102316.72;;;17.65;31.98
5138;BME280;53959;53.626;11.410;2023-04-19T08:43:29;102318.91;;;16.86;33.38
5138;BME280;53959;53.626;11.410;2023-04-19T08:45:57;102309.31;;;16.38;33.50
5138;BME280;53959;53.626;11.410;2023-04-19T08:48:24;102312.69;;;16.85;32.41
5138;BME280;53959;53.626;11.410;2023-04-19T08:50:51;102307.41;;;16.81;32.19
5138;BME280;53959;53.626;11.410;2023-04-19T08:53:18;102303.84;;;16.80;32.05
5138;BME280;53959;53.626;11.410;2023-04-19T08:55:44;102304.91;;;16.74;32.38
5138;BME280;53959;53.626;11.410;2023-04-19T08:58:10;102297.66;;;16.41;33.40
5138;BME280;53959;53.626;11.410;2023-04-19T09:00:39;102304.38;;;16.21;33.02
5138;BME280;53959;53.626;11.410;2023-04-19T09:03:08;102290.31;;;15.70;33.06
5138;BME280;53959;53.626;11.410;2023-04-19T09:05:33;102294.19;;;15.97;33.37
5138;BME280;53959;53.626;11.410;2023-04-19T09:10:52;102294.84;;;16.08;32.32
5138;BME280;53959;53.626;11.410;2023-04-19T09:13:18;102293.50;;;17.32;30.46
5138;BME280;53959;53.626;11.410;2023-04-19T09:15:43;102273.97;;;16.21;31.10
5138;BME280;53959;53.626;11.410;2023-04-19T09:18:09;102288.47;;;16.87;30.89
5138;BME280;53959;53.626;11.410;2023-04-19T09:20:39;102275.19;;;16.08;31.97
5138;BME280;53959;53.626;11.410;2023-04-19T09:23:07;102274.44;;;16.01;31.52
5138;BME280;53959;53.626;11.410;2023-04-19T09:25:34;102268.22;;;16.00;32.08
5138;BME280;53959;53.626;11.410;2023-04-19T09:28:13;102262.91;;;17.37;30.53
5138;BME280;53959;53.626;11.410;2023-04-19T09:30:39;102265.91;;;16.94;30.85
5138;BME280;53959;53.626;11.410;2023-04-19T09:33:05;102254.88;;;16.36;31.79
5138;BME280;53959;53.626;11.410;2023-04-19T09:35:45;102249.34;;;16.05;32.04
5138;BME280;53959;53.626;11.410;2023-04-19T09:38:15;102242.59;;;15.02;33.19
5138;BME280;53959;53.626;11.410;2023-04-19T09:40:41;102258.28;;;14.18;34.36
5138;BME280;53959;53.626;11.410;2023-04-19T09:43:07;102253.44;;;13.07;36.06
5138;BME280;53959;53.626;11.410;2023-04-19T09:45:42;102249.84;;;12.16;38.78
5138;BME280;53959;53.626;11.410;2023-04-19T09:48:09;102239.16;;;12.18;38.62
5138;BME280;53959;53.626;11.410;2023-04-19T09:50:36;102236.75;;;11.73;38.36
5138;BME280;53959;53.626;11.410;2023-04-19T09:53:16;102242.06;;;11.78;39.05
5138;BME280;53959;53.626;11.410;2023-04-19T09:58:21;102231.53;;;11.55;38.85
5138;BME280;53959;53.626;11.410;2023-04-19T10:00:47;102223.53;;;11.59;38.05
5138;BME280;53959;53.626;11.410;2023-04-19T10:03:14;102220.81;;;11.65;37.37
5138;BME280;53959;53.626;11.410;2023-04-19T10:05:41;102220.06;;;11.40;36.77
5138;BME280;53959;53.626;11.410;2023-04-19T10:08:08;102218.28;;;11.41;36.93
5138;BME280;53959;53.626;11.410;2023-04-19T10:10:33;102221.81;;;11.46;37.09
5138;BME280;53959;53.626;11.410;2023-04-19T10:13:02;102220.75;;;11.79;37.08
5138;BME280;53959;53.626;11.410;2023-04-19T10:15:29;102216.53;;;11.34;37.23
5138;BME280;53959;53.626;11.410;2023-04-19T10:17:55;102206.78;;;11.40;37.66
5138;BME280;53959;53.626;11.410;2023-04-19T10:20:29;102206.81;;;11.27;38.31
5138;BME280;53959;53.626;11.410;2023-04-19T10:22:57;102204.03;;;11.54;37.94
5138;BME280;53959;53.626;11.410;2023-04-19T10:25:29;102215.38;;;11.91;38.41
5138;BME280;53959;53.626;11.410;2023-04-19T10:27:55;102216.31;;;11.81;37.87
5138;BME280;53959;53.626;11.410;2023-04-19T10:30:24;102210.16;;;11.65;38.38
5138;BME280;53959;53.626;11.410;2023-04-19T10:32:55;102185.50;;;11.37;37.15
5138;BME280;53959;53.626;11.410;2023-04-19T10:35:23;102203.19;;;11.46;36.82
5138;BME280;53959;53.626;11.410;2023-04-19T10:43:22;102195.00;;;11.81;37.96
5138;BME280;53959;53.626;11.410;2023-04-19T10:45:47;102193.28;;;11.74;38.02
5138;BME280;53959;53.626;11.410;2023-04-19T10:51:00;102179.19;;;11.57;37.98
5138;BME280;53959;53.626;11.410;2023-04-19T10:53:52;102163.28;;;11.48;38.05
5138;BME280;53959;53.626;11.410;2023-04-19T10:56:55;102176.28;;;11.95;38.37
5138;BME280;53959;53.626;11.410;2023-04-19T10:59:11;102176.34;;;11.87;38.08
5138;BME280;53959;53.626;11.410;2023-04-19T11:01:39;102172.19;;;11.39;37.98
5138;BME280;53959;53.626;11.410;2023-04-19T11:07:09;102163.19;;;11.60;37.72
5138;BME280;53959;53.626;11.410;2023-04-19T11:09:38;102171.94;;;11.83;37.81
5138;BME280;53959;53.626;11.410;2023-04-19T11:12:07;102158.69;;;11.74;38.00
5138;BME280;53959;53.626;11.410;2023-04-19T11:14:34;102148.97;;;11.67;38.06
5138;BME280;53959;53.626;11.410;2023-04-19T11:17:24;102143.47;;;11.91;38.04
5138;BME280;53959;53.626;11.410;2023-04-19T11:22:35;102161.38;;;11.68;37.73
5138;BME280;53959;53.626;11.410;2023-04-19T11:25:27;102142.66;;;11.79;38.58
5138;BME280;53959;53.626;11.410;2023-04-19T11:27:55;102137.44;;;11.65;38.63
5138;BME280;53959;53.626;11.410;2023-04-19T11:30:31;102138.47;;;11.44;38.57
5138;BME280;53959;53.626;11.410;2023-04-19T11:32:57;102133.97;;;11.51;38.57
5138;BME280;53959;53.626;11.410;2023-04-19T11:35:27;102134.97;;;11.31;38.32
5138;BME280;53959;53.626;11.410;2023-04-19T11:37:53;102138.28;;;11.68;37.50
5138;BME280;53959;53.626;11.410;2023-04-19T11:40:23;102146.28;;;11.70;36.96
5138;BME280;53959;53.626;11.410;2023-04-19T11:43:08;102133.53;;;12.17;36.74
5138;BME280;53959;53.626;11.410;2023-04-19T11:45:35;102143.53;;;11.88;35.23
5138;BME280;53959;53.626;11.410;2023-04-19T11:48:03;102135.59;;;11.75;34.36
5138;BME280;53959;53.626;11.410;2023-04-19T11:50:40;102136.47;;;11.75;33.95
5138;BME280;53959;53.626;11.410;2023-04-19T11:53:09;102142.72;;;11.74;33.47
5138;BME280;53959;53.626;11.410;2023-04-19T11:55:35;102138.34;;;11.64;33.23
5138;BME280;53959;53.626;11.410;2023-04-19T11:58:01;102138.22;;;11.79;33.14
5138;BME280;53959;53.626;11.410;2023-04-19T12:00:27;102116.03;;;11.86;33.90
5138;BME280;53959;53.626;11.410;2023-04-19T12:02:53;102112.47;;;11.80;33.51
5138;BME280;53959;53.626;11.410;2023-04-19T12:05:19;102136.28;;;12.04;33.85
5138;BME280;53959;53.626;11.410;2023-04-19T12:08:04;102122.09;;;12.04;33.40
5138;BME280;53959;53.626;11.410;2023-04-19T12:10:32;102123.88;;;12.02;33.83
5138;BME280;53959;53.626;11.410;2023-04-19T12:12:58;102128.44;;;11.87;33.83
5138;BME280;53959;53.626;11.410;2023-04-19T12:15:42;102129.19;;;12.02;34.48
5138;BME280;53959;53.626;11.410;2023-04-19T12:18:08;102113.06;;;12.20;34.19
5138;BME280;53959;53.626;11.410;2023-04-19T12:20:35;102112.09;;;12.30;34.12
5138;BME280;53959;53.626;11.410;2023-04-19T12:23:01;102096.09;;;12.30;33.94
5138;BME280;53959;53.626;11.410;2023-04-19T12:25:32;102126.53;;;12.05;35.06
5138;BME280;53959;53.626;11.410;2023-04-19T12:27:59;102112.81;;;12.46;34.57
5138;BME280;53959;53.626;11.410;2023-04-19T12:30:25;102107.06;;;12.81;35.30
5138;BME280;53959;53.626;11.410;2023-04-19T12:32:51;102106.69;;;13.10;34.41
5138;BME280;53959;53.626;11.410;2023-04-19T12:35:23;102117.06;;;13.36;33.98
5138;BME280;53959;53.626;11.410;2023-04-19T12:37:50;102110.56;;;12.86;33.54
5138;BME280;53959;53.626;11.410;2023-04-19T12:40:16;102104.78;;;13.23;33.18
5138;BME280;53959;53.626;11.410;2023-04-19T12:42:41;102114.75;;;13.07;33.17
5138;BME280;53959;53.626;11.410;2023-04-19T12:45:07;102106.00;;;12.96;32.41
5138;BME280;53959;53.626;11.410;2023-04-19T12:47:32;102104.59;;;12.68;31.40
5138;BME280;53959;53.626;11.410;2023-04-19T12:49:57;102092.50;;;13.10;30.81
5138;BME280;53959;53.626;11.410;2023-04-19T12:52:23;102100.97;;;13.95;30.42
5138;BME280;53959;53.626;11.410;2023-04-19T12:54:48;102105.94;;;13.66;28.89
5138;BME280;53959;53.626;11.410;2023-04-19T12:57:14;102081.38;;;13.98;28.38
5138;BME280;53959;53.626;11.410;2023-04-19T12:59:39;102097.28;;;14.04;27.84
5138;BME280;53959;53.626;11.410;2023-04-19T13:02:05;102090.03;;;14.12;28.67
5138;BME280;53959;53.626;11.410;2023-04-19T13:04:31;102106.75;;;13.07;29.40
5138;BME280;53959;53.626;11.410;2023-04-19T13:06:56;102093.50;;;13.00;29.11
5138;BME280;53959;53.626;11.410;2023-04-19T13:09:22;102092.16;;;13.36;29.09
5138;BME280;53959;53.626;11.410;2023-04-19T13:11:47;102068.44;;;13.11;29.26
5138;BME280;53959;53.626;11.410;2023-04-19T13:14:12;102082.28;;;12.73;30.10
5138;BME280;53959;53.626;11.410;2023-04-19T13:16:38;102064.91;;;12.42;30.08
5138;BME280;53959;53.626;11.410;2023-04-19T13:19:04;102058.66;;;12.41;30.79